Nearby METAR Reports

KLWM - Lawrence,MA, USA
Distance from station: NE 12mi, 19km
Updated: Tue, 18-Feb-2020 4:03pm EST
Light rain, Mist, Overcast
Light rain, Mist, Overcast
 Wind from varies
Wind: varies 5 mph , 7 km/h
Temperature: 36°F , 2°C
Wind Chill: 32°F , 0°C
Dew Point: 34°F , 1°C
Humidity: 93%
Barometer: 30.18 inHg , 1022 hPa
Summary: Light rain, Mist
Clouds: Overcast
Visibility: 2 1/2 miles , 4 km
Cloud details: Overcast 900 ft
2020/02/18 21:03 KLWM 182103Z VRB04KT 2 1/2SM -RA BR OVC009 02/01 A3018 RMK AO2 P0001 T00220011
KBED - Bedford,MA, USA
Distance from station: SSE 12mi, 19km
Updated: Tue, 18-Feb-2020 3:58pm EST
Light rain, Mist, Overcast
Light rain, Mist, Overcast
 Wind from SE
Wind: SE 7 mph , 11 km/h
Temperature: 37°F , 3°C
Wind Chill: 32°F , 0°C
Dew Point: 34°F , 1°C
Humidity: 87%
Barometer: 30.15 inHg , 1021 hPa
Summary: Light rain, Mist
Clouds: Overcast
Visibility: 3 miles , 5 km
Cloud details: Overcast 1100 ft
2020/02/18 20:58 KBED 182058Z 13006KT 3SM -RA BR OVC011 03/01 A3015 RMK AO2 P0000 T00280006

Metar display script from Saratoga-Weather.org